Time;durP1;ratioP1;P1;durP2;ratioP2;P2;SDS_P1;SDS_P2;PMS_P1;PMS_P2;Temp;Humidity;BMP_temperature;BMP_pressure;BME280_temperature;BME280_humidity;BME280_pressure;Samples;Min_cycle;Max_cycle;Signal;HPM_P1;HPM_P2
2022/11/12 00:02:09;;;;;;;26.80;14.32;;;;;;;;;;5074831;28;20416;-71
2022/11/12 00:04:37;;;;;;;25.65;13.25;;;;;;;;;;5064137;28;20059;-71
2022/11/12 00:07:04;;;;;;;25.10;13.55;;;;;;;;;;5082223;28;20044;-72
2022/11/12 00:09:31;;;;;;;22.58;13.35;;;;;;;;;;5060499;28;20113;-71
2022/11/12 00:12:00;;;;;;;28.00;13.60;;;;;;;;;;5082255;28;20124;-71
2022/11/12 00:14:27;;;;;;;25.42;13.85;;;;;;;;;;5083715;28;20040;-71
2022/11/12 00:16:54;;;;;;;25.83;13.25;;;;;;;;;;5069291;28;20102;-71
2022/11/12 00:19:21;;;;;;;24.25;13.18;;;;;;;;;;5064136;28;20494;-71
2022/11/12 00:21:48;;;;;;;24.23;13.20;;;;;;;;;;5065677;28;20067;-71
2022/11/12 00:24:16;;;;;;;28.20;13.70;;;;;;;;;;5082697;28;20044;-70
2022/11/12 00:26:43;;;;;;;23.13;12.90;;;;;;;;;;5084410;28;20044;-72
2022/11/12 00:29:11;;;;;;;21.55;12.82;;;;;;;;;;5083690;28;20064;-70
2022/11/12 00:31:39;;;;;;;24.42;13.70;;;;;;;;;;5079909;28;20074;-71
2022/11/12 00:34:06;;;;;;;21.75;13.13;;;;;;;;;;5066940;28;20052;-71
2022/11/12 00:36:34;;;;;;;21.02;12.50;;;;;;;;;;5058466;28;20140;-71
2022/11/12 00:39:01;;;;;;;21.83;12.70;;;;;;;;;;5083377;28;20478;-71
2022/11/12 00:41:28;;;;;;;26.23;12.73;;;;;;;;;;5078624;28;20067;-71
2022/11/12 00:43:55;;;;;;;28.00;13.68;;;;;;;;;;5066705;28;20055;-71
2022/11/12 00:46:24;;;;;;;25.35;13.10;;;;;;;;;;5077722;28;20052;-71
2022/11/12 00:48:51;;;;;;;20.77;13.35;;;;;;;;;;5062299;28;20058;-72
2022/11/12 00:51:18;;;;;;;26.88;15.20;;;;;;;;;;5079894;28;20063;-71
2022/11/12 00:53:48;;;;;;;24.33;12.82;;;;;;;;;;5069384;28;20056;-71
2022/11/12 00:56:15;;;;;;;21.75;12.95;;;;;;;;;;5063154;28;20088;-71
2022/11/12 00:58:42;;;;;;;28.52;12.82;;;;;;;;;;5076172;28;20048;-71
2022/11/12 01:01:11;;;;;;;24.65;13.77;;;;;;;;;;5085094;28;20426;-71
2022/11/12 01:03:40;;;;;;;24.90;13.10;;;;;;;;;;5063087;28;20056;-72
2022/11/12 01:06:08;;;;;;;23.95;12.88;;;;;;;;;;5067676;28;20044;-70
2022/11/12 01:08:35;;;;;;;22.88;13.25;;;;;;;;;;5083370;28;20504;-71
2022/11/12 01:11:07;;;;;;;24.55;14.40;;;;;;;;;;5066954;28;20079;-71
2022/11/12 01:13:34;;;;;;;25.85;13.65;;;;;;;;;;5082700;28;20047;-71
2022/11/12 01:16:05;;;;;;;22.13;12.77;;;;;;;;;;5059275;28;20063;-70
2022/11/12 01:18:32;;;;;;;22.58;13.20;;;;;;;;;;5079063;28;20064;-70
2022/11/12 01:21:02;;;;;;;22.75;14.05;;;;;;;;;;5083337;28;20641;-71
2022/11/12 01:23:29;;;;;;;27.60;14.68;;;;;;;;;;5062821;28;20087;-72
2022/11/12 01:25:56;;;;;;;28.23;13.82;;;;;;;;;;5078399;28;20511;-71
2022/11/12 01:28:24;;;;;;;28.83;14.73;;;;;;;;;;5083078;28;20047;-71
2022/11/12 01:30:51;;;;;;;22.98;12.43;;;;;;;;;;5076857;28;20059;-71
2022/11/12 01:33:18;;;;;;;24.80;14.93;;;;;;;;;;5077081;28;20079;-71
2022/11/12 01:35:45;;;;;;;28.52;14.70;;;;;;;;;;5085157;28;20040;-71
2022/11/12 01:38:14;;;;;;;27.08;14.10;;;;;;;;;;5062234;28;20074;-71
2022/11/12 01:40:41;;;;;;;25.20;12.75;;;;;;;;;;5068757;28;20056;-71
2022/11/12 01:43:13;;;;;;;21.40;12.63;;;;;;;;;;5083991;28;20051;-71
2022/11/12 01:45:43;;;;;;;21.45;12.73;;;;;;;;;;5064017;28;20606;-72
2022/11/12 01:48:15;;;;;;;17.77;12.25;;;;;;;;;;5081383;28;20079;-71
2022/11/12 01:50:42;;;;;;;23.98;13.65;;;;;;;;;;5080144;28;20071;-71
2022/11/12 01:53:12;;;;;;;24.30;13.60;;;;;;;;;;5059361;28;20845;-70
2022/11/12 01:55:40;;;;;;;22.50;11.95;;;;;;;;;;5081501;28;20044;-72
2022/11/12 01:58:10;;;;;;;23.75;12.90;;;;;;;;;;5081367;28;20045;-71
2022/11/12 02:00:38;;;;;;;23.80;13.77;;;;;;;;;;5064254;28;20396;-71
2022/11/12 02:03:08;;;;;;;31.52;15.55;;;;;;;;;;5081905;28;20050;-71
2022/11/12 02:05:38;;;;;;;30.02;15.40;;;;;;;;;;5078324;28;20139;-71
2022/11/12 02:08:06;;;;;;;29.05;15.10;;;;;;;;;;5080513;28;20044;-71
2022/11/12 02:10:33;;;;;;;40.67;17.00;;;;;;;;;;5060133;28;20435;-72
2022/11/12 02:15:47;;;;;;;28.75;16.52;;;;;;;;;;5081194;28;20537;-71
2022/11/12 02:18:14;;;;;;;34.25;18.38;;;;;;;;;;5077614;28;20040;-71
2022/11/12 02:20:41;;;;;;;32.67;18.10;;;;;;;;;;5081845;28;20457;-71
2022/11/12 02:23:10;;;;;;;32.85;17.23;;;;;;;;;;5082778;28;20051;-71
2022/11/12 02:25:37;;;;;;;35.55;17.73;;;;;;;;;;5065248;28;20440;-71
2022/11/12 02:28:07;;;;;;;34.53;17.50;;;;;;;;;;5088659;28;20063;-71
2022/11/12 02:30:34;;;;;;;30.52;17.48;;;;;;;;;;5084336;28;20040;-72
2022/11/12 02:33:02;;;;;;;28.88;16.25;;;;;;;;;;5068778;28;20046;-70
2022/11/12 02:35:30;;;;;;;30.65;16.70;;;;;;;;;;5082402;28;20052;-70
2022/11/12 02:37:57;;;;;;;33.90;16.98;;;;;;;;;;5067019;28;20051;-70
2022/11/12 02:40:26;;;;;;;34.50;17.05;;;;;;;;;;5083956;28;20047;-70
2022/11/12 02:42:53;;;;;;;32.30;17.77;;;;;;;;;;5083535;28;20055;-71
2022/11/12 02:45:20;;;;;;;32.20;17.10;;;;;;;;;;5085164;28;20087;-71
2022/11/12 02:47:48;;;;;;;34.25;17.15;;;;;;;;;;5086476;28;20075;-70
2022/11/12 02:50:15;;;;;;;31.25;16.65;;;;;;;;;;5088219;28;20142;-71
2022/11/12 02:52:43;;;;;;;36.33;17.45;;;;;;;;;;5082261;28;20044;-71
2022/11/12 02:55:11;;;;;;;34.45;18.58;;;;;;;;;;5071143;28;20052;-70
2022/11/12 02:57:40;;;;;;;36.92;18.25;;;;;;;;;;5081218;28;20048;-71
2022/11/12 03:00:08;;;;;;;32.85;16.90;;;;;;;;;;5069815;28;20056;-71
2022/11/12 03:02:41;;;;;;;30.08;16.38;;;;;;;;;;5081226;28;20136;-70
2022/11/12 03:05:08;;;;;;;29.70;16.60;;;;;;;;;;5086362;28;20051;-71
2022/11/12 03:07:36;;;;;;;33.80;16.85;;;;;;;;;;5081134;28;20052;-70
2022/11/12 03:10:03;;;;;;;28.88;16.58;;;;;;;;;;5082437;28;20047;-70
2022/11/12 03:12:31;;;;;;;27.45;14.55;;;;;;;;;;5077703;28;20056;-71
2022/11/12 03:14:59;;;;;;;31.80;16.90;;;;;;;;;;5084810;28;20056;-72
2022/11/12 03:17:27;;;;;;;35.80;17.13;;;;;;;;;;5082874;28;20501;-71
2022/11/12 03:19:54;;;;;;;35.85;17.33;;;;;;;;;;5086990;28;20426;-70
2022/11/12 03:22:21;;;;;;;33.53;17.15;;;;;;;;;;5086502;28;20062;-71
2022/11/12 03:24:48;;;;;;;31.77;16.38;;;;;;;;;;5067654;28;20044;-70
2022/11/12 03:27:16;;;;;;;29.00;16.75;;;;;;;;;;5064790;28;20053;-71
2022/11/12 03:29:43;;;;;;;33.63;17.25;;;;;;;;;;5066328;28;20375;-71
2022/11/12 03:32:11;;;;;;;33.97;18.38;;;;;;;;;;5084151;28;20055;-70
2022/11/12 03:34:39;;;;;;;42.35;17.60;;;;;;;;;;5079332;28;20048;-71
2022/11/12 03:37:08;;;;;;;37.22;18.23;;;;;;;;;;5085880;28;20040;-71
2022/11/12 03:39:35;;;;;;;40.42;19.63;;;;;;;;;;5084299;28;20076;-70
2022/11/12 03:42:02;;;;;;;40.70;18.42;;;;;;;;;;5068098;28;20464;-71
2022/11/12 03:44:30;;;;;;;38.75;18.42;;;;;;;;;;5056935;28;20067;-71
2022/11/12 03:46:57;;;;;;;44.42;19.30;;;;;;;;;;5059578;28;20597;-71
2022/11/12 03:49:25;;;;;;;44.40;21.17;;;;;;;;;;5086271;28;20059;-71
2022/11/12 03:51:53;;;;;;;47.97;19.80;;;;;;;;;;5073851;28;20051;-71
2022/11/12 03:54:20;;;;;;;58.78;21.50;;;;;;;;;;5080126;28;20052;-71
2022/11/12 03:56:47;;;;;;;66.07;22.45;;;;;;;;;;5055923;28;20090;-71
2022/11/12 03:59:14;;;;;;;62.95;21.48;;;;;;;;;;5076170;28;20487;-71
2022/11/12 04:01:41;;;;;;;76.25;23.08;;;;;;;;;;5063965;28;20071;-71
2022/11/12 04:04:10;;;;;;;75.22;24.45;;;;;;;;;;5084631;28;20875;-71
2022/11/12 04:09:23;;;;;;;142.68;26.27;;;;;;;;;;5058202;28;20126;-71
2022/11/12 04:11:50;;;;;;;111.53;25.33;;;;;;;;;;5083903;28;20051;-71
2022/11/12 04:14:16;;;;;;;79.47;25.25;;;;;;;;;;5086455;28;20063;-72
2022/11/12 04:22:29;;;;;;;119.78;29.92;;;;;;;;;;5041168;28;20052;-70
2022/11/12 04:27:41;;;;;;;309.13;37.40;;;;;;;;;;5048817;28;20135;-70
2022/11/12 04:30:17;;;;;;;109.20;26.95;;;;;;;;;;5083751;28;20790;-71
2022/11/12 04:32:48;;;;;;;92.38;25.15;;;;;;;;;;5083965;28;20055;-72
2022/11/12 04:35:15;;;;;;;90.97;25.30;;;;;;;;;;5082023;28;20060;-71
2022/11/12 04:37:44;;;;;;;129.40;27.45;;;;;;;;;;5082817;28;20461;-71
2022/11/12 04:45:42;;;;;;;122.85;27.20;;;;;;;;;;5050961;28;20053;-71
2022/11/12 04:48:09;;;;;;;151.60;27.73;;;;;;;;;;5053164;28;20053;-72
2022/11/12 04:50:37;;;;;;;156.32;27.52;;;;;;;;;;5059907;28;20052;-71
2022/11/12 04:53:05;;;;;;;175.95;29.35;;;;;;;;;;5063470;28;20045;-71
2022/11/12 04:55:33;;;;;;;314.20;33.38;;;;;;;;;;5061407;28;20048;-71
2022/11/12 04:58:00;;;;;;;237.10;31.50;;;;;;;;;;5063656;28;20044;-71
2022/11/12 05:00:27;;;;;;;303.73;31.42;;;;;;;;;;5060326;28;20044;-71
2022/11/12 05:02:54;;;;;;;329.63;32.10;;;;;;;;;;5065038;28;20678;-72
2022/11/12 05:05:22;;;;;;;337.23;34.17;;;;;;;;;;5063301;28;20059;-71
2022/11/12 05:07:49;;;;;;;186.02;28.15;;;;;;;;;;5059877;28;20053;-72
2022/11/12 05:10:18;;;;;;;190.05;28.00;;;;;;;;;;5064166;28;20067;-71
2022/11/12 05:12:45;;;;;;;172.57;29.02;;;;;;;;;;5065409;28;20155;-71
2022/11/12 05:15:12;;;;;;;164.95;28.02;;;;;;;;;;5064484;28;20586;-71
2022/11/12 05:17:43;;;;;;;221.90;29.27;;;;;;;;;;5060382;28;20104;-71
2022/11/12 05:20:10;;;;;;;366.27;32.95;;;;;;;;;;5064618;28;20090;-71
2022/11/12 05:22:38;;;;;;;226.38;30.52;;;;;;;;;;5060733;28;20130;-72
2022/11/12 05:25:05;;;;;;;245.50;31.52;;;;;;;;;;5060694;28;20053;-71
2022/11/12 05:27:35;;;;;;;294.08;30.45;;;;;;;;;;5063384;28;20399;-71
2022/11/12 05:30:02;;;;;;;235.52;31.50;;;;;;;;;;5064208;28;20068;-72
2022/11/12 05:32:29;;;;;;;256.15;33.20;;;;;;;;;;5062760;28;20052;-71
2022/11/12 05:34:56;;;;;;;254.35;32.08;;;;;;;;;;5059835;28;20044;-70
2022/11/12 05:37:23;;;;;;;365.25;33.88;;;;;;;;;;5062690;28;20064;-70
2022/11/12 05:39:51;;;;;;;453.38;41.95;;;;;;;;;;5061302;28;20052;-71
2022/11/12 05:42:18;;;;;;;378.45;36.67;;;;;;;;;;5064894;28;20044;-71
2022/11/12 05:44:46;;;;;;;440.90;37.58;;;;;;;;;;5062367;28;20098;-71
2022/11/12 05:47:14;;;;;;;320.48;34.90;;;;;;;;;;5081039;28;20036;-71
2022/11/12 05:49:41;;;;;;;371.45;39.13;;;;;;;;;;5066540;28;20052;-71
2022/11/12 05:52:08;;;;;;;399.42;41.03;;;;;;;;;;5084610;28;20052;-70
2022/11/12 05:54:35;;;;;;;307.80;34.85;;;;;;;;;;5064199;28;20048;-71
2022/11/12 05:57:03;;;;;;;366.17;37.90;;;;;;;;;;5084694;28;20055;-71
2022/11/12 05:59:30;;;;;;;534.95;41.92;;;;;;;;;;5079226;28;20055;-71
2022/11/12 06:01:58;;;;;;;432.20;41.25;;;;;;;;;;5065948;28;20059;-71
2022/11/12 06:04:26;;;;;;;373.45;39.70;;;;;;;;;;5082793;28;20044;-71
2022/11/12 06:06:53;;;;;;;296.63;37.58;;;;;;;;;;5083234;28;20048;-71
2022/11/12 06:09:21;;;;;;;257.85;35.92;;;;;;;;;;5067522;28;20052;-71
2022/11/12 06:11:48;;;;;;;233.18;35.75;;;;;;;;;;5065535;28;20701;-71
2022/11/12 06:14:16;;;;;;;219.60;36.05;;;;;;;;;;5058409;28;20557;-71
2022/11/12 06:16:43;;;;;;;201.05;37.05;;;;;;;;;;5065942;28;20044;-72
2022/11/12 06:19:11;;;;;;;339.23;41.90;;;;;;;;;;5082568;28;20044;-70
2022/11/12 06:21:39;;;;;;;311.83;41.13;;;;;;;;;;5055615;28;20043;-71
2022/11/12 06:24:06;;;;;;;192.70;37.92;;;;;;;;;;5079414;28;20733;-71
2022/11/12 06:26:33;;;;;;;212.60;37.80;;;;;;;;;;5077541;28;20052;-72
2022/11/12 06:29:00;;;;;;;215.27;41.85;;;;;;;;;;5080894;28;20372;-71
2022/11/12 06:31:28;;;;;;;254.48;44.58;;;;;;;;;;5081487;28;20047;-71
2022/11/12 06:33:55;;;;;;;206.32;41.55;;;;;;;;;;5065209;28;20059;-71
2022/11/12 06:36:23;;;;;;;256.20;41.53;;;;;;;;;;5081955;28;20071;-71
2022/11/12 06:38:51;;;;;;;174.23;38.47;;;;;;;;;;5080212;28;20052;-71
2022/11/12 06:41:18;;;;;;;255.23;39.97;;;;;;;;;;5055479;28;20061;-71
2022/11/12 06:43:45;;;;;;;267.25;45.38;;;;;;;;;;5063326;28;20071;-70
2022/11/12 06:46:13;;;;;;;206.65;38.83;;;;;;;;;;5060965;28;20076;-72
2022/11/12 06:48:41;;;;;;;178.20;42.13;;;;;;;;;;5062283;28;20040;-71
2022/11/12 06:51:09;;;;;;;280.35;42.03;;;;;;;;;;5055030;28;20045;-71
2022/11/12 06:53:37;;;;;;;321.35;45.83;;;;;;;;;;5058898;28;20090;-71
2022/11/12 06:56:05;;;;;;;163.02;42.33;;;;;;;;;;5061092;28;20058;-71
2022/11/12 06:58:33;;;;;;;239.43;43.63;;;;;;;;;;5062964;28;20531;-72
2022/11/12 07:01:04;;;;;;;247.80;44.65;;;;;;;;;;5064669;28;20048;-71
2022/11/12 07:03:32;;;;;;;195.63;45.67;;;;;;;;;;5059880;28;20075;-72
2022/11/12 07:05:59;;;;;;;210.68;45.50;;;;;;;;;;5063679;28;20067;-72
2022/11/12 07:08:26;;;;;;;180.77;46.17;;;;;;;;;;5060308;28;20088;-71
2022/11/12 07:10:57;;;;;;;196.13;46.60;;;;;;;;;;5058830;28;20053;-72
2022/11/12 07:13:25;;;;;;;251.80;49.63;;;;;;;;;;5064628;28;20048;-72
2022/11/12 07:15:52;;;;;;;154.93;43.40;;;;;;;;;;5062612;28;20045;-71
2022/11/12 07:18:19;;;;;;;192.48;43.13;;;;;;;;;;5066362;28;20434;-71
2022/11/12 07:20:46;;;;;;;158.18;43.70;;;;;;;;;;5061344;28;20063;-71
2022/11/12 07:23:13;;;;;;;174.55;43.72;;;;;;;;;;5061175;28;20044;-71
2022/11/12 07:25:41;;;;;;;198.70;44.58;;;;;;;;;;5061640;28;20056;-71
2022/11/12 07:28:09;;;;;;;186.25;45.15;;;;;;;;;;5055270;28;20049;-71
2022/11/12 07:30:36;;;;;;;139.63;39.28;;;;;;;;;;5053909;28;20056;-70
2022/11/12 07:33:04;;;;;;;186.90;40.30;;;;;;;;;;5060316;28;20115;-71
2022/11/12 07:35:31;;;;;;;146.15;41.35;;;;;;;;;;5056777;28;20048;-71
2022/11/12 07:37:58;;;;;;;305.15;42.67;;;;;;;;;;5062473;28;20087;-71
2022/11/12 07:40:25;;;;;;;211.40;42.03;;;;;;;;;;5056445;28;20049;-71
2022/11/12 07:42:53;;;;;;;216.80;42.67;;;;;;;;;;5060682;28;20056;-70
2022/11/12 07:45:21;;;;;;;175.18;43.25;;;;;;;;;;5065741;28;20136;-71
2022/11/12 07:47:49;;;;;;;207.95;43.47;;;;;;;;;;5079623;28;20739;-71
2022/11/12 07:50:16;;;;;;;371.27;49.50;;;;;;;;;;5085247;28;20063;-71
2022/11/12 07:52:43;;;;;;;188.65;44.88;;;;;;;;;;5080231;28;20052;-71
2022/11/12 07:55:10;;;;;;;367.52;50.13;;;;;;;;;;5078952;28;20526;-71
2022/11/12 07:57:37;;;;;;;306.48;47.55;;;;;;;;;;5059836;28;20055;-71
2022/11/12 08:00:05;;;;;;;225.32;45.60;;;;;;;;;;5076877;28;20047;-71
2022/11/12 08:02:34;;;;;;;201.75;42.85;;;;;;;;;;5079663;28;20443;-72
2022/11/12 08:05:01;;;;;;;246.48;42.35;;;;;;;;;;5082384;28;20797;-71
2022/11/12 08:07:29;;;;;;;219.52;45.22;;;;;;;;;;5079785;28;20043;-71
2022/11/12 08:09:57;;;;;;;220.95;39.38;;;;;;;;;;5084373;28;20051;-72
2022/11/12 08:12:24;;;;;;;200.70;44.05;;;;;;;;;;5084273;28;20142;-72
2022/11/12 08:14:51;;;;;;;230.65;41.28;;;;;;;;;;5057794;28;20048;-71
2022/11/12 08:17:18;;;;;;;158.45;40.40;;;;;;;;;;5067596;28;20054;-72
2022/11/12 08:19:47;;;;;;;236.07;44.95;;;;;;;;;;5085536;28;20048;-71
2022/11/12 08:22:14;;;;;;;213.15;41.33;;;;;;;;;;5080850;28;20709;-71
2022/11/12 08:24:41;;;;;;;189.68;36.80;;;;;;;;;;5084202;28;20059;-72
2022/11/12 08:27:09;;;;;;;168.27;36.33;;;;;;;;;;5082987;28;20048;-71
2022/11/12 08:29:36;;;;;;;228.52;39.28;;;;;;;;;;5062727;28;20051;-71
2022/11/12 08:32:03;;;;;;;185.57;39.00;;;;;;;;;;5067648;28;20071;-71
2022/11/12 08:34:30;;;;;;;183.82;35.75;;;;;;;;;;5078389;28;20044;-72
2022/11/12 08:36:59;;;;;;;167.05;34.72;;;;;;;;;;5056715;28;20402;-71
2022/11/12 08:39:27;;;;;;;142.35;34.13;;;;;;;;;;5057601;28;20067;-72
2022/11/12 08:41:55;;;;;;;195.65;38.58;;;;;;;;;;5056427;28;20133;-69
2022/11/12 08:44:22;;;;;;;136.85;35.95;;;;;;;;;;5074488;28;20052;-71
2022/11/12 08:46:51;;;;;;;117.82;32.35;;;;;;;;;;5056950;28;20052;-71
2022/11/12 08:49:18;;;;;;;128.93;32.00;;;;;;;;;;5073215;28;20062;-70
2022/11/12 08:51:45;;;;;;;164.90;34.35;;;;;;;;;;5082037;28;20051;-70
2022/11/12 08:54:14;;;;;;;144.85;32.53;;;;;;;;;;5059076;28;20056;-72
2022/11/12 08:56:41;;;;;;;134.90;32.00;;;;;;;;;;5067114;28;20410;-72
2022/11/12 08:59:08;;;;;;;141.45;31.52;;;;;;;;;;5065074;28;20055;-71
2022/11/12 09:01:35;;;;;;;105.60;28.58;;;;;;;;;;5073523;28;20066;-72
2022/11/12 09:04:02;;;;;;;112.63;29.38;;;;;;;;;;5083765;28;20052;-72
2022/11/12 09:06:30;;;;;;;107.13;30.13;;;;;;;;;;5083658;28;20502;-72
2022/11/12 09:08:57;;;;;;;149.73;31.45;;;;;;;;;;5083285;28;20044;-71
2022/11/12 09:11:25;;;;;;;121.15;30.50;;;;;;;;;;5063015;28;20593;-72
2022/11/12 09:13:53;;;;;;;114.47;30.05;;;;;;;;;;5065032;28;20055;-71
2022/11/12 09:16:22;;;;;;;125.60;31.33;;;;;;;;;;5060191;28;20056;-71
2022/11/12 09:18:50;;;;;;;88.60;30.63;;;;;;;;;;5063234;28;20059;-71
2022/11/12 09:21:20;;;;;;;102.70;30.60;;;;;;;;;;5058351;28;20101;-72
2022/11/12 09:23:47;;;;;;;87.40;28.63;;;;;;;;;;5081766;28;20060;-71
2022/11/12 09:26:15;;;;;;;138.90;30.20;;;;;;;;;;5058974;28;20056;-71
2022/11/12 09:28:43;;;;;;;94.13;29.10;;;;;;;;;;5084825;28;20459;-72
2022/11/12 09:31:10;;;;;;;76.00;26.15;;;;;;;;;;5062732;28;20052;-72
2022/11/12 09:33:38;;;;;;;80.13;31.17;;;;;;;;;;5085065;28;20044;-71
2022/11/12 09:36:05;;;;;;;121.63;32.08;;;;;;;;;;5058787;28;20082;-72
2022/11/12 09:38:33;;;;;;;118.90;29.02;;;;;;;;;;5080801;28;20048;-72
2022/11/12 09:41:18;;;;;;;74.90;28.70;;;;;;;;;;5082389;28;20047;-71
2022/11/12 09:43:49;;;;;;;85.10;27.13;;;;;;;;;;5083571;28;20490;-71
2022/11/12 09:46:23;;;;;;;94.18;26.30;;;;;;;;;;5057030;28;20060;-71
2022/11/12 09:48:53;;;;;;;76.55;25.50;;;;;;;;;;5072536;28;20056;-72
2022/11/12 09:51:24;;;;;;;58.65;25.88;;;;;;;;;;5062111;28;20049;-71
2022/11/12 09:53:55;;;;;;;72.72;25.20;;;;;;;;;;5076662;28;20059;-72
2022/11/12 09:56:23;;;;;;;74.32;25.65;;;;;;;;;;5077578;28;20052;-72
2022/11/12 09:58:52;;;;;;;75.07;25.60;;;;;;;;;;5065655;28;20058;-72
2022/11/12 10:01:22;;;;;;;53.88;24.45;;;;;;;;;;5061158;28;20090;-71
2022/11/12 10:03:53;;;;;;;96.80;30.67;;;;;;;;;;5077762;28;20044;-72
2022/11/12 10:06:22;;;;;;;83.03;35.95;;;;;;;;;;5067016;28;20581;-71
2022/11/12 10:08:52;;;;;;;106.88;32.20;;;;;;;;;;5063336;28;20047;-71
2022/11/12 10:14:26;;;;;;;51.55;23.85;;;;;;;;;;5060376;28;20128;-72
2022/11/12 10:16:56;;;;;;;57.50;25.10;;;;;;;;;;5077718;28;20064;-71
2022/11/12 10:19:27;;;;;;;51.72;25.30;;;;;;;;;;5077148;28;20127;-71
2022/11/12 10:21:58;;;;;;;59.10;26.17;;;;;;;;;;5078548;28;20371;-71
2022/11/12 10:24:27;;;;;;;80.93;24.60;;;;;;;;;;5082918;28;20067;-72
2022/11/12 10:26:57;;;;;;;59.03;26.90;;;;;;;;;;5064438;28;20052;-71
2022/11/12 10:29:29;;;;;;;139.68;28.58;;;;;;;;;;5064502;28;20055;-72
2022/11/12 10:31:56;;;;;;;92.88;24.48;;;;;;;;;;5061472;28;20059;-71
2022/11/12 10:34:24;;;;;;;102.97;24.40;;;;;;;;;;5061577;28;20072;-72
2022/11/12 10:36:53;;;;;;;147.43;24.77;;;;;;;;;;5064504;28;20052;-71
2022/11/12 10:39:36;;;;;;;96.72;24.17;;;;;;;;;;5081259;28;20769;-71
2022/11/12 10:42:05;;;;;;;51.08;24.92;;;;;;;;;;5061381;28;20747;-72
2022/11/12 10:44:34;;;;;;;78.55;24.63;;;;;;;;;;5063166;28;20490;-71
2022/11/12 10:47:16;;;;;;;78.78;22.35;;;;;;;;;;5064305;28;20051;-72
2022/11/12 10:49:43;;;;;;;64.57;22.30;;;;;;;;;;5069163;28;20689;-72
2022/11/12 10:52:20;;;;;;;61.90;21.83;;;;;;;;;;5065643;28;20056;-72
2022/11/12 10:54:48;;;;;;;58.38;24.27;;;;;;;;;;5080254;28;20044;-72
2022/11/12 10:57:22;;;;;;;52.10;20.85;;;;;;;;;;5086945;28;20047;-72
2022/11/12 11:00:06;;;;;;;70.28;19.95;;;;;;;;;;5068364;28;20056;-72
2022/11/12 11:02:33;;;;;;;105.80;21.67;;;;;;;;;;5068735;28;20488;-72
2022/11/12 11:05:01;;;;;;;125.28;21.30;;;;;;;;;;5084252;28;20049;-71
2022/11/12 11:07:28;;;;;;;70.63;21.63;;;;;;;;;;5085146;28;20056;-72
2022/11/12 11:09:56;;;;;;;64.47;20.48;;;;;;;;;;5065650;28;20525;-71
2022/11/12 11:12:24;;;;;;;49.63;20.40;;;;;;;;;;5062339;28;20091;-72
2022/11/12 11:15:06;;;;;;;57.70;21.00;;;;;;;;;;5081537;28;20052;-72
2022/11/12 11:17:33;;;;;;;45.80;20.95;;;;;;;;;;5065025;28;20048;-72
2022/11/12 11:20:01;;;;;;;49.63;22.13;;;;;;;;;;5082452;28;20048;-71
2022/11/12 11:22:33;;;;;;;48.05;20.73;;;;;;;;;;5083226;28;20510;-72
2022/11/12 11:25:18;;;;;;;51.15;20.63;;;;;;;;;;5069116;28;20086;-72
2022/11/12 11:27:51;;;;;;;51.10;21.15;;;;;;;;;;5061017;28;20048;-71
2022/11/12 11:30:18;;;;;;;;;;;;;;;;;;5063635;28;20113;-71
2022/11/12 11:32:54;;;;;;;91.93;23.30;;;;;;;;;;5083441;28;19927;-72
2022/11/12 11:35:26;;;;;;;58.92;20.35;;;;;;;;;;5067955;28;20067;-71
2022/11/12 11:37:58;;;;;;;59.38;22.77;;;;;;;;;;5065744;28;20166;-72
2022/11/12 11:40:28;;;;;;;48.53;23.38;;;;;;;;;;5056178;28;20055;-72
2022/11/12 11:43:04;;;;;;;51.22;22.10;;;;;;;;;;5058063;28;20052;-71
2022/11/12 11:45:37;;;;;;;54.45;23.30;;;;;;;;;;5056479;28;20052;-72
2022/11/12 11:48:13;;;;;;;41.63;22.88;;;;;;;;;;5056389;28;20136;-71
2022/11/12 11:50:43;;;;;;;53.38;22.02;;;;;;;;;;5064042;28;20127;-71
2022/11/12 11:53:16;;;;;;;44.05;21.25;;;;;;;;;;5058005;28;20148;-70
2022/11/12 11:55:43;;;;;;;;;;;;;;;;;;5064974;28;20059;-71
2022/11/12 11:58:16;;;;;;;58.88;25.88;;;;;;;;;;5056126;28;20330;-72
2022/11/12 12:00:47;;;;;;;57.22;26.70;;;;;;;;;;5062857;28;20056;-71
2022/11/12 12:03:20;;;;;;;60.22;27.45;;;;;;;;;;5066198;28;20731;-72
2022/11/12 12:05:51;;;;;;;58.95;29.25;;;;;;;;;;5060412;28;20044;-72
2022/11/12 12:08:23;;;;;;;58.13;27.67;;;;;;;;;;5062406;28;20048;-71
2022/11/12 12:10:54;;;;;;;73.13;31.08;;;;;;;;;;5067104;28;20045;-71
2022/11/12 12:13:25;;;;;;;75.03;31.85;;;;;;;;;;5059931;28;20498;-72
2022/11/12 12:15:59;;;;;;;80.55;33.38;;;;;;;;;;5060023;28;20052;-71
2022/11/12 12:18:35;;;;;;;85.72;34.10;;;;;;;;;;5063228;28;20053;-72
2022/11/12 12:21:04;;;;;;;79.15;34.58;;;;;;;;;;5056270;28;20842;-71
2022/11/12 12:23:34;;;;;;;83.00;32.42;;;;;;;;;;5061602;28;20049;-71
2022/11/12 12:26:03;;;;;;;75.20;32.97;;;;;;;;;;5064678;28;20056;-72
2022/11/12 12:28:35;;;;;;;78.82;33.80;;;;;;;;;;5057337;28;20056;-71
2022/11/12 12:31:06;;;;;;;78.03;34.10;;;;;;;;;;5063078;28;20041;-71
2022/11/12 12:33:38;;;;;;;77.03;32.70;;;;;;;;;;5065308;28;20044;-71
2022/11/12 12:36:09;;;;;;;71.05;31.63;;;;;;;;;;5064114;28;20556;-71
2022/11/12 12:38:39;;;;;;;73.00;32.30;;;;;;;;;;5061951;28;20090;-71
2022/11/12 12:41:11;;;;;;;80.22;34.50;;;;;;;;;;5065774;28;20755;-71
2022/11/12 12:43:44;;;;;;;70.15;31.85;;;;;;;;;;5061177;28;20048;-72
2022/11/12 12:46:13;;;;;;;69.25;32.13;;;;;;;;;;5065969;28;20666;-71
2022/11/12 12:48:43;;;;;;;62.63;30.52;;;;;;;;;;5080747;28;21573;-71
2022/11/12 12:51:10;;;;;;;69.32;31.40;;;;;;;;;;5063537;28;20063;-71
2022/11/12 12:53:39;;;;;;;74.03;33.28;;;;;;;;;;5083231;28;20082;-71
2022/11/12 12:56:07;;;;;;;71.32;32.60;;;;;;;;;;5056866;28;20067;-71
2022/11/12 12:58:41;;;;;;;71.68;33.05;;;;;;;;;;5067272;28;20550;-72
2022/11/12 13:01:12;;;;;;;75.47;35.25;;;;;;;;;;5081743;28;20048;-71
2022/11/12 13:03:49;;;;;;;87.07;37.42;;;;;;;;;;5063260;28;20075;-71
2022/11/12 13:06:22;;;;;;;75.60;34.40;;;;;;;;;;5082434;28;20132;-71
2022/11/12 13:08:51;;;;;;;73.30;35.17;;;;;;;;;;5081631;28;20044;-71
2022/11/12 13:12:20;;;;;;;75.10;36.08;;;;;;;;;;5081969;28;20055;-71
2022/11/12 13:14:48;;;;;;;75.82;36.40;;;;;;;;;;5084009;28;20584;-72
2022/11/12 13:17:35;;;;;;;82.18;38.30;;;;;;;;;;5063541;28;20525;-71
2022/11/12 13:20:33;;;;;;;75.45;37.50;;;;;;;;;;5078176;28;20048;-71
2022/11/12 13:23:01;;;;;;;81.90;36.97;;;;;;;;;;4985198;28;20127;-71
2022/11/12 13:25:30;;;;;;;79.68;39.33;;;;;;;;;;5064278;28;20074;-71
2022/11/12 13:28:07;;;;;;;86.72;41.05;;;;;;;;;;5078052;28;20060;-72
2022/11/12 13:30:53;;;;;;;82.20;38.97;;;;;;;;;;5064843;28;20201;-72
2022/11/12 13:33:24;;;;;;;80.38;39.15;;;;;;;;;;5081301;28;20414;-71
2022/11/12 13:35:51;;;;;;;83.10;42.08;;;;;;;;;;5066141;28;20463;-71
2022/11/12 13:38:20;;;;;;;83.07;40.10;;;;;;;;;;5077234;28;20491;-72
2022/11/12 13:40:51;;;;;;;84.15;42.97;;;;;;;;;;5078967;28;20134;-72
2022/11/12 13:43:32;;;;;;;86.82;42.92;;;;;;;;;;5057541;28;20062;-72
2022/11/12 13:46:00;;;;;;;92.25;44.83;;;;;;;;;;5080869;28;20048;-71
2022/11/12 13:48:29;;;;;;;100.57;45.08;;;;;;;;;;5064057;28;20795;-71
2022/11/12 13:50:58;;;;;;;94.05;42.88;;;;;;;;;;5079515;28;20048;-72
2022/11/12 13:53:27;;;;;;;97.38;44.70;;;;;;;;;;5081976;28;20048;-72
2022/11/12 13:55:55;;;;;;;86.05;44.55;;;;;;;;;;5082735;28;20048;-71
2022/11/12 13:58:29;;;;;;;88.80;43.97;;;;;;;;;;5080973;28;20139;-71
2022/11/12 14:00:57;;;;;;;87.30;43.40;;;;;;;;;;5066250;28;20070;-71
2022/11/12 14:03:26;;;;;;;88.35;44.35;;;;;;;;;;5061662;28;20064;-71
2022/11/12 14:05:54;;;;;;;85.53;43.03;;;;;;;;;;5078626;28;20041;-71
2022/11/12 14:08:39;;;;;;;86.60;42.72;;;;;;;;;;5077727;28;20060;-71
2022/11/12 14:11:21;;;;;;;78.47;40.35;;;;;;;;;;5081471;28;20427;-71
2022/11/12 14:14:00;;;;;;;88.43;43.40;;;;;;;;;;5074152;28;20052;-71
2022/11/12 14:16:35;;;;;;;93.85;44.60;;;;;;;;;;5079020;28;20710;-72
2022/11/12 14:19:27;;;;;;;95.93;45.15;;;;;;;;;;5078085;28;20044;-72
2022/11/12 14:22:01;;;;;;;94.40;44.72;;;;;;;;;;5083712;28;20074;-71
2022/11/12 14:24:29;;;;;;;96.80;44.97;;;;;;;;;;5087734;28;20402;-71
2022/11/12 14:26:56;;;;;;;98.88;45.42;;;;;;;;;;5069532;28;20044;-71
2022/11/12 14:29:24;;;;;;;100.13;46.00;;;;;;;;;;5072523;28;20055;-71
2022/11/12 14:32:00;;;;;;;89.55;42.17;;;;;;;;;;5081212;28;20612;-71
2022/11/12 14:34:28;;;;;;;88.55;42.88;;;;;;;;;;5069211;28;20063;-71
2022/11/12 14:36:56;;;;;;;93.75;44.15;;;;;;;;;;5068638;28;20442;-71
2022/11/12 14:39:24;;;;;;;86.03;42.33;;;;;;;;;;5067209;28;20045;-71
2022/11/12 14:41:51;;;;;;;91.05;42.75;;;;;;;;;;5086092;28;20052;-71
2022/11/12 14:44:21;;;;;;;91.38;42.78;;;;;;;;;;5084861;28;20398;-71
2022/11/12 14:46:52;;;;;;;89.65;43.80;;;;;;;;;;5086897;28;20056;-71
2022/11/12 14:49:23;;;;;;;79.72;39.92;;;;;;;;;;5065547;28;20571;-71